Time;durP1;ratioP1;P1;durP2;ratioP2;P2;SDS_P1;SDS_P2;PMS_P1;PMS_P2;Temp;Humidity;BMP_temperature;BMP_pressure;BME280_temperature;BME280_humidity;BME280_pressure;Samples;Min_cycle;Max_cycle;Signal;HPM_P1;HPM_P2
2021/03/30 00:00:28;;;;;;;2.27;1.33;;;;;;;6.17;38.63;97055.19;5033160;28;20209;-76
2021/03/30 00:02:53;;;;;;;2.30;1.20;;;;;;;6.20;38.04;97060.19;5049958;28;20202;-76
2021/03/30 00:05:18;;;;;;;2.43;1.33;;;;;;;6.23;37.02;97057.44;5033137;28;20181;-76
2021/03/30 00:07:44;;;;;;;1.83;1.20;;;;;;;6.28;36.56;97052.88;5051341;28;20220;-76
2021/03/30 00:10:13;;;;;;;2.63;1.10;;;;;;;6.29;36.75;97048.53;5050064;28;20182;-76
2021/03/30 00:12:38;;;;;;;1.30;0.93;;;;;;;6.26;36.61;97052.09;5049930;28;20220;-76
2021/03/30 00:15:06;;;;;;;1.83;1.30;;;;;;;6.31;36.43;97046.72;5049604;28;20186;-76
2021/03/30 00:17:31;;;;;;;1.53;1.13;;;;;;;6.30;37.20;97039.88;5033090;28;20185;-76
2021/03/30 00:19:57;;;;;;;4.03;1.20;;;;;;;6.26;38.00;97049.53;5051125;28;20556;-76
2021/03/30 00:22:22;;;;;;;2.10;1.13;;;;;;;6.23;37.89;97047.13;5049689;28;20260;-76
2021/03/30 00:24:47;;;;;;;1.43;1.23;;;;;;;6.13;38.80;97038.22;5050971;28;20210;-76
2021/03/30 00:27:13;;;;;;;2.80;1.70;;;;;;;6.11;38.11;97040.91;5049915;28;20174;-76
2021/03/30 00:29:46;;;;;;;2.43;1.20;;;;;;;6.13;37.58;97039.06;5051047;28;20174;-76
2021/03/30 00:32:12;;;;;;;1.90;1.20;;;;;;;6.18;37.28;97031.06;5049651;28;20677;-76
2021/03/30 00:34:38;;;;;;;1.73;1.30;;;;;;;6.18;38.00;97031.06;5049559;28;20707;-76
2021/03/30 00:37:04;;;;;;;2.20;1.33;;;;;;;6.30;36.17;97030.41;5051021;28;20182;-76
2021/03/30 00:39:29;;;;;;;3.00;1.30;;;;;;;6.34;36.13;97028.47;5051567;28;20576;-76
2021/03/30 00:41:54;;;;;;;5.00;1.20;;;;;;;6.41;35.64;97027.22;5054600;28;20224;-76
2021/03/30 00:44:20;;;;;;;2.07;1.23;;;;;;;6.50;35.94;97030.09;5054175;28;20660;-76
2021/03/30 00:46:46;;;;;;;1.20;1.10;;;;;;;6.39;36.45;97027.31;5053345;28;20174;-76
2021/03/30 00:49:13;;;;;;;4.03;1.50;;;;;;;6.53;36.62;97027.34;5036548;28;20178;-76
2021/03/30 00:51:38;;;;;;;1.50;1.30;;;;;;;6.44;37.03;97038.19;5053354;28;20703;-76
2021/03/30 00:54:04;;;;;;;1.70;1.10;;;;;;;6.31;38.43;97034.63;5053113;28;20228;-76
2021/03/30 00:56:29;;;;;;;3.77;1.40;;;;;;;6.20;39.39;97030.06;5046140;28;20212;-76
2021/03/30 00:58:56;;;;;;;4.00;1.37;;;;;;;6.13;39.51;97028.75;5072729;28;20185;-76
2021/03/30 01:01:21;;;;;;;3.00;1.30;;;;;;;6.04;39.63;97031.81;5089931;28;20259;-76
2021/03/30 01:03:47;;;;;;;2.77;1.40;;;;;;;6.08;39.69;97024.75;5089876;28;20247;-76
2021/03/30 01:06:12;;;;;;;2.53;1.27;;;;;;;6.05;40.42;97025.75;5089756;28;20201;-76
2021/03/30 01:08:53;;;;;;;4.13;1.50;;;;;;;6.10;40.13;97028.09;5072814;28;20242;-76
2021/03/30 01:11:18;;;;;;;4.17;1.40;;;;;;;6.22;40.11;97025.66;5072736;28;20181;-76
2021/03/30 01:14:08;;;;;;;5.40;1.60;;;;;;;6.22;40.44;97025.66;5074114;28;20258;-76
2021/03/30 01:16:40;;;;;;;3.23;1.47;;;;;;;6.32;40.59;97023.41;5072477;28;20652;-76
2021/03/30 01:19:23;;;;;;;2.53;1.70;;;;;;;6.40;40.39;97030.72;5089590;28;20177;-76
2021/03/30 01:22:12;;;;;;;4.30;1.40;;;;;;;6.37;41.24;97020.56;5089861;28;20184;-76
2021/03/30 01:24:38;;;;;;;2.70;1.60;;;;;;;6.34;41.59;97024.13;5072460;28;20673;-76
2021/03/30 01:27:28;;;;;;;2.00;1.40;;;;;;;6.35;41.62;97018.06;5089538;28;20227;-76
2021/03/30 01:29:54;;;;;;;8.87;1.90;;;;;;;6.41;41.53;97012.56;5073752;28;20204;-76
2021/03/30 01:32:22;;;;;;;2.90;1.40;;;;;;;6.60;40.62;97012.34;5089301;28;20221;-76
2021/03/30 01:34:49;;;;;;;6.73;1.60;;;;;;;6.83;40.13;97013.63;5073512;28;20561;-76
2021/03/30 01:37:16;;;;;;;2.07;1.40;;;;;;;6.91;39.96;97008.00;5072345;28;20231;-75
2021/03/30 01:39:43;;;;;;;2.40;1.33;;;;;;;6.99;39.58;97011.81;5072310;28;20606;-76
2021/03/30 01:42:10;;;;;;;2.97;1.50;;;;;;;7.14;39.59;97014.41;5055314;28;20208;-76
2021/03/30 01:44:38;;;;;;;3.87;1.30;;;;;;;7.18;39.85;97018.47;5055341;28;20625;-76
2021/03/30 01:47:03;;;;;;;2.00;1.40;;;;;;;7.24;39.68;97003.41;5072343;28;20173;-75
2021/03/30 01:49:29;;;;;;;1.87;1.30;;;;;;;7.22;40.29;96997.50;5072048;28;20520;-76
2021/03/30 01:51:56;;;;;;;2.23;1.53;;;;;;;7.19;40.53;96995.13;5071595;28;20189;-76
2021/03/30 01:54:22;;;;;;;2.43;1.30;;;;;;;7.13;41.28;97008.41;5088709;28;20673;-76
2021/03/30 01:56:48;;;;;;;3.67;1.60;;;;;;;7.01;41.53;97004.78;5088797;28;20173;-76
2021/03/30 01:59:15;;;;;;;3.00;1.57;;;;;;;6.98;42.11;97007.56;5071735;28;20200;-76
2021/03/30 02:01:41;;;;;;;2.47;1.40;;;;;;;7.01;42.33;97009.97;5071928;28;20177;-76
2021/03/30 02:04:06;;;;;;;3.63;1.60;;;;;;;7.00;42.58;97004.88;5071786;28;20200;-76
2021/03/30 02:06:33;;;;;;;3.80;1.43;;;;;;;7.06;42.57;97010.50;5071697;28;20181;-76
2021/03/30 02:09:01;;;;;;;3.50;1.37;;;;;;;6.94;42.76;97003.50;5088368;28;20180;-76
2021/03/30 02:11:41;;;;;;;4.33;1.53;;;;;;;6.95;43.08;97001.72;5055124;28;20181;-76
2021/03/30 02:14:07;;;;;;;3.80;1.43;;;;;;;6.79;43.57;97004.38;5072747;28;20660;-76
2021/03/30 02:16:35;;;;;;;2.33;1.33;;;;;;;6.68;43.91;97010.16;5071393;28;20222;-76
2021/03/30 02:19:11;;;;;;;2.63;1.40;;;;;;;6.53;44.62;97005.88;5071316;28;20198;-76
2021/03/30 02:21:44;;;;;;;4.43;2.10;;;;;;;6.48;44.94;97000.16;5071562;28;20613;-76
2021/03/30 02:24:11;;;;;;;3.30;1.57;;;;;;;6.38;45.32;97001.59;5088229;28;20238;-76
2021/03/30 02:26:40;;;;;;;4.23;1.60;;;;;;;6.32;45.43;96997.59;5088052;28;20173;-76
2021/03/30 02:29:08;;;;;;;3.77;1.73;;;;;;;6.30;45.45;96996.03;5088165;28;20178;-76
2021/03/30 02:31:34;;;;;;;3.87;1.70;;;;;;;6.34;45.41;97002.66;5088080;28;20227;-76
2021/03/30 02:34:01;;;;;;;4.90;1.43;;;;;;;6.29;44.99;96997.78;5087955;28;20205;-76
2021/03/30 02:36:27;;;;;;;2.37;1.43;;;;;;;6.33;45.03;96991.50;5072221;28;20208;-76
2021/03/30 02:38:56;;;;;;;3.77;1.50;;;;;;;6.29;45.14;96994.38;5088137;28;20230;-75
2021/03/30 02:41:21;;;;;;;3.87;1.50;;;;;;;6.33;44.78;96993.25;5087994;28;20637;-75
2021/03/30 02:43:47;;;;;;;2.40;1.57;;;;;;;6.37;44.90;96995.59;5087861;28;20199;-75
2021/03/30 02:46:15;;;;;;;3.67;1.70;;;;;;;6.50;44.35;96985.41;5087582;28;20177;-75
2021/03/30 02:48:43;;;;;;;3.53;1.80;;;;;;;6.49;44.15;96989.72;5087887;28;20177;-75
2021/03/30 02:51:08;;;;;;;3.90;1.70;;;;;;;6.53;44.06;96985.22;5087752;28;20178;-75
2021/03/30 02:53:34;;;;;;;3.60;1.30;;;;;;;6.50;44.34;96998.31;5087745;28;20204;-75
2021/03/30 02:56:01;;;;;;;2.40;1.60;;;;;;;6.44;44.83;97002.06;5070719;28;20201;-76
2021/03/30 02:58:26;;;;;;;4.73;1.57;;;;;;;6.43;44.94;96994.41;5087389;28;20185;-76
2021/03/30 03:00:53;;;;;;;3.60;1.53;;;;;;;6.44;45.05;96999.47;5070593;28;20266;-76
2021/03/30 03:03:19;;;;;;;3.63;1.70;;;;;;;6.51;44.53;97003.38;5086737;28;20212;-76
2021/03/30 03:05:44;;;;;;;6.70;1.67;;;;;;;6.49;45.00;97000.06;5070376;28;20177;-76
2021/03/30 03:08:10;;;;;;;4.93;1.87;;;;;;;6.54;44.31;96997.22;5071879;28;20177;-75
2021/03/30 03:10:36;;;;;;;4.37;2.10;;;;;;;6.58;44.01;96993.53;5087514;28;20166;-76
2021/03/30 03:13:02;;;;;;;3.30;1.63;;;;;;;6.64;43.88;97000.13;5087382;28;20312;-75
2021/03/30 03:15:28;;;;;;;3.17;1.43;;;;;;;6.51;44.02;97003.38;5071621;28;20208;-76
2021/03/30 03:17:54;;;;;;;2.53;1.30;;;;;;;6.47;44.58;96996.75;5087359;28;20173;-76
2021/03/30 03:20:20;;;;;;;3.67;1.50;;;;;;;6.50;44.71;97003.47;5087300;28;20209;-76
2021/03/30 03:22:45;;;;;;;4.77;2.13;;;;;;;6.63;43.98;96995.88;5087287;28;20653;-76
2021/03/30 03:25:13;;;;;;;4.07;1.93;;;;;;;6.75;43.46;97000.31;5087034;28;20184;-75
2021/03/30 03:27:39;;;;;;;5.20;1.70;;;;;;;6.77;43.17;96998.47;5087388;28;20181;-76
2021/03/30 03:30:13;;;;;;;3.90;1.87;;;;;;;6.81;43.07;96999.97;5087306;28;20629;-76
2021/03/30 03:32:40;;;;;;;4.03;1.50;;;;;;;6.73;43.39;97003.00;5087190;28;20205;-76
2021/03/30 03:35:10;;;;;;;2.83;1.43;;;;;;;6.63;43.81;96990.72;5087022;28;20177;-76
2021/03/30 03:37:46;;;;;;;5.60;1.80;;;;;;;6.50;44.42;96995.72;5087197;28;20172;-76
2021/03/30 03:40:13;;;;;;;3.53;1.80;;;;;;;6.53;44.43;96998.94;5070108;28;20691;-76
2021/03/30 03:42:39;;;;;;;4.23;1.60;;;;;;;6.39;44.77;97003.25;5070087;28;20216;-76
2021/03/30 03:45:06;;;;;;;4.10;1.90;;;;;;;6.28;45.23;97006.44;5086925;28;20185;-75
2021/03/30 03:47:31;;;;;;;5.23;1.87;;;;;;;6.18;45.62;97005.25;5070246;28;20559;-76
2021/03/30 03:49:57;;;;;;;4.33;1.50;;;;;;;6.22;45.79;97007.59;5087092;28;20283;-76
2021/03/30 03:52:22;;;;;;;2.63;1.50;;;;;;;6.12;46.06;97006.44;5070143;28;20289;-76
2021/03/30 03:54:48;;;;;;;2.10;1.37;;;;;;;5.98;46.59;96998.63;5086657;28;20246;-76
2021/03/30 03:57:19;;;;;;;4.83;1.53;;;;;;;5.88;47.00;96995.69;5086986;28;20207;-76
2021/03/30 03:59:45;;;;;;;3.47;1.63;;;;;;;5.84;47.30;97007.09;5069788;28;20205;-76
2021/03/30 04:02:17;;;;;;;2.50;1.43;;;;;;;5.80;47.22;97008.16;5086739;28;20193;-76
2021/03/30 04:05:07;;;;;;;5.60;1.70;;;;;;;5.74;47.40;97008.47;5086632;28;20382;-76
2021/03/30 04:07:37;;;;;;;2.73;1.43;;;;;;;5.67;47.80;97009.75;5071388;28;20234;-76
2021/03/30 04:10:03;;;;;;;5.67;1.73;;;;;;;5.71;47.85;97010.41;5069945;28;20174;-76
2021/03/30 04:12:30;;;;;;;3.27;2.20;;;;;;;5.59;48.25;97011.91;5086606;28;20218;-76
2021/03/30 04:14:57;;;;;;;3.97;1.80;;;;;;;5.55;48.85;97005.22;5054555;28;20268;-76
2021/03/30 04:17:23;;;;;;;3.60;1.70;;;;;;;5.47;48.87;97008.19;5073760;28;20177;-76
2021/03/30 04:19:48;;;;;;;4.77;2.00;;;;;;;5.40;49.05;97004.31;5090586;28;20212;-75
2021/03/30 04:22:15;;;;;;;4.60;1.90;;;;;;;5.38;49.29;97006.94;5090670;28;20218;-76
2021/03/30 04:24:41;;;;;;;3.67;1.70;;;;;;;5.34;49.73;97007.19;5073437;28;20173;-76
2021/03/30 04:27:10;;;;;;;1.90;1.50;;;;;;;5.31;49.57;97008.19;5073598;28;20181;-76
2021/03/30 04:29:36;;;;;;;3.10;1.40;;;;;;;5.30;49.09;97008.25;5073489;28;20411;-76
2021/03/30 04:32:01;;;;;;;5.67;2.67;;;;;;;5.32;48.91;97009.03;5073449;28;20286;-76
2021/03/30 04:34:27;;;;;;;5.17;1.87;;;;;;;5.40;48.91;97012.03;5074517;28;20740;-76
2021/03/30 04:36:52;;;;;;;4.83;2.07;;;;;;;5.33;48.46;97008.94;5074630;28;20694;-76
2021/03/30 04:39:17;;;;;;;3.40;1.90;;;;;;;5.42;48.29;97010.22;5074633;28;20211;-76
2021/03/30 04:41:43;;;;;;;4.97;3.57;;;;;;;5.45;47.60;97011.78;5090267;28;20207;-76
2021/03/30 04:44:08;;;;;;;7.23;4.03;;;;;;;5.53;47.13;97007.88;5074404;28;20561;-76
2021/03/30 04:46:33;;;;;;;4.60;3.50;;;;;;;5.57;47.22;97008.56;5074304;28;20279;-76
2021/03/30 04:48:58;;;;;;;3.73;2.70;;;;;;;5.62;46.82;97016.88;5090103;28;20271;-76
2021/03/30 04:51:24;;;;;;;2.80;2.50;;;;;;;5.63;46.34;97019.38;5090155;28;20553;-75
2021/03/30 04:53:49;;;;;;;5.07;2.53;;;;;;;5.64;46.94;97022.78;5074249;28;20197;-76
2021/03/30 04:56:14;;;;;;;3.13;2.17;;;;;;;5.68;47.14;97027.72;5074039;28;20235;-75
2021/03/30 04:58:40;;;;;;;6.00;2.37;;;;;;;5.60;47.44;97023.88;5073741;28;20181;-76
2021/03/30 05:01:06;;;;;;;6.53;2.77;;;;;;;5.52;47.69;97018.28;5089913;28;20618;-76
2021/03/30 05:03:31;;;;;;;3.63;2.17;;;;;;;5.55;47.60;97012.97;5089765;28;20232;-76
2021/03/30 05:05:56;;;;;;;2.83;1.93;;;;;;;5.56;47.24;97018.03;5073952;28;20366;-76
2021/03/30 05:08:21;;;;;;;3.80;1.93;;;;;;;5.60;47.10;97019.53;5074157;28;20181;-76
2021/03/30 05:10:49;;;;;;;3.37;1.87;;;;;;;5.71;46.52;97020.72;5072740;28;20559;-76
2021/03/30 05:13:15;;;;;;;7.17;1.90;;;;;;;5.74;46.32;97025.69;5089476;28;20205;-76
2021/03/30 05:15:40;;;;;;;3.17;1.60;;;;;;;5.77;45.78;97017.81;5089499;28;20181;-76
2021/03/30 05:18:05;;;;;;;5.00;1.60;;;;;;;5.79;46.34;97016.81;5073940;28;20583;-76
2021/03/30 05:20:31;;;;;;;4.63;1.70;;;;;;;5.81;46.57;97017.56;5072728;28;20222;-76
2021/03/30 05:22:56;;;;;;;5.50;2.00;;;;;;;5.86;46.72;97025.06;5073893;28;20287;-76
2021/03/30 05:25:21;;;;;;;2.47;1.80;;;;;;;5.90;46.07;97017.09;5073508;28;20551;-76
2021/03/30 05:27:47;;;;;;;4.13;1.80;;;;;;;5.95;45.79;97020.25;5072800;28;20219;-76
2021/03/30 05:30:13;;;;;;;6.37;1.87;;;;;;;6.00;46.14;97020.00;5089389;28;20187;-76
2021/03/30 05:32:38;;;;;;;4.20;1.80;;;;;;;6.10;45.95;97022.94;5072294;28;20204;-76
2021/03/30 05:35:10;;;;;;;2.20;1.90;;;;;;;6.26;45.21;97018.56;5089019;28;20256;-76
2021/03/30 05:37:35;;;;;;;5.20;1.63;;;;;;;6.35;45.23;97022.38;5049436;28;20537;-76
2021/03/30 05:40:00;;;;;;;3.20;1.87;;;;;;;6.42;45.63;97024.53;5050637;28;20224;-75
2021/03/30 05:42:26;;;;;;;4.83;2.00;;;;;;;6.46;45.93;97031.22;5075553;28;20217;-74
2021/03/30 05:44:53;;;;;;;2.63;1.97;;;;;;;6.50;46.01;97021.53;5067029;28;20227;-74
2021/03/30 05:47:24;;;;;;;2.77;1.80;;;;;;;6.66;45.63;97024.09;5050193;28;20197;-75
2021/03/30 05:49:49;;;;;;;5.60;2.30;;;;;;;6.77;45.56;97016.53;5063400;28;20177;-74
2021/03/30 05:52:26;;;;;;;6.47;2.00;;;;;;;6.84;45.30;97022.19;5061799;28;20204;-74
2021/03/30 05:54:55;;;;;;;4.90;2.10;;;;;;;6.99;45.41;97029.88;5051674;28;20245;-74
2021/03/30 05:57:25;;;;;;;5.20;2.50;;;;;;;7.04;45.29;97022.69;5067204;28;20185;-75
2021/03/30 05:59:55;;;;;;;3.47;2.17;;;;;;;7.17;44.82;97027.97;5066499;28;20197;-75
2021/03/30 06:02:28;;;;;;;2.87;2.13;;;;;;;7.23;45.12;97024.19;5055992;28;20213;-75
2021/03/30 06:04:54;;;;;;;4.10;2.27;;;;;;;7.38;44.98;97026.69;5069506;28;20185;-75
2021/03/30 06:07:20;;;;;;;6.53;2.23;;;;;;;7.52;44.81;97032.81;5069691;28;20192;-75
2021/03/30 06:09:46;;;;;;;4.70;2.27;;;;;;;7.64;44.60;97027.69;5058919;28;20186;-75
2021/03/30 06:12:13;;;;;;;6.63;2.60;;;;;;;7.79;44.26;97035.47;5067643;28;20703;-76
2021/03/30 06:14:39;;;;;;;3.97;1.80;;;;;;;7.92;44.31;97038.94;5064850;28;20242;-75
2021/03/30 06:17:06;;;;;;;4.73;2.23;;;;;;;8.10;43.80;97036.97;5060236;28;20231;-75
2021/03/30 06:19:46;;;;;;;4.77;2.33;;;;;;;8.29;43.32;97039.22;5063934;28;20610;-75
2021/03/30 06:22:11;;;;;;;4.90;2.50;;;;;;;8.43;43.09;97037.44;5069849;28;20210;-75
2021/03/30 06:24:36;;;;;;;6.03;2.57;;;;;;;8.53;43.06;97040.28;5064757;28;20494;-75
2021/03/30 06:27:05;;;;;;;5.03;2.27;;;;;;;8.70;42.96;97041.78;5052663;28;20231;-76
2021/03/30 06:29:35;;;;;;;5.53;2.23;;;;;;;8.90;42.39;97040.47;5058349;28;20594;-76
2021/03/30 06:32:10;;;;;;;4.40;2.30;;;;;;;9.07;42.17;97042.78;5069523;28;20653;-76
2021/03/30 06:34:41;;;;;;;3.13;2.10;;;;;;;9.24;41.76;97039.91;5052346;28;20187;-76
2021/03/30 06:37:28;;;;;;;5.63;2.40;;;;;;;9.48;41.11;97039.19;5081293;28;20186;-76
2021/03/30 06:39:58;;;;;;;2.33;1.70;;;;;;;9.62;41.39;97041.66;5056420;28;20293;-76
2021/03/30 06:42:57;;;;;;;3.30;2.13;;;;;;;9.78;41.15;97044.03;5066323;28;20232;-76
2021/03/30 06:45:25;;;;;;;4.33;2.13;;;;;;;9.87;41.02;97039.03;5067477;28;20246;-76
2021/03/30 06:47:53;;;;;;;3.60;1.90;;;;;;;10.03;40.65;97045.75;5056742;28;20197;-76
2021/03/30 06:50:24;;;;;;;7.67;2.00;;;;;;;10.14;40.52;97045.81;5061917;28;20239;-76
2021/03/30 06:52:49;;;;;;;5.30;2.00;;;;;;;10.29;40.44;97044.75;5064893;28;20227;-75
2021/03/30 06:55:24;;;;;;;4.40;2.07;;;;;;;10.41;40.02;97049.06;5063241;28;20193;-75
2021/03/30 06:57:50;;;;;;;3.20;1.80;;;;;;;10.54;40.29;97048.22;5056897;28;20264;-76
2021/03/30 07:00:19;;;;;;;5.50;2.13;;;;;;;10.73;40.05;97048.53;5063056;28;20724;-75
2021/03/30 07:02:47;;;;;;;4.23;2.03;;;;;;;10.85;39.11;97046.78;5067868;28;20294;-76
2021/03/30 07:05:29;;;;;;;4.90;2.10;;;;;;;10.97;38.89;97046.72;5066577;28;20236;-76
2021/03/30 07:07:59;;;;;;;4.73;2.50;;;;;;;11.06;38.17;97053.03;5038339;28;20189;-76
2021/03/30 07:10:25;;;;;;;6.17;2.03;;;;;;;11.16;38.08;97045.34;5056389;28;20185;-75
2021/03/30 07:12:52;;;;;;;4.07;1.97;;;;;;;11.24;37.52;97048.22;5067639;28;20334;-76
2021/03/30 07:15:23;;;;;;;6.53;2.23;;;;;;;11.32;37.79;97043.28;5066649;28;20189;-76
2021/03/30 07:17:59;;;;;;;6.83;2.20;;;;;;;11.41;37.80;97052.16;5065788;28;20185;-76
2021/03/30 07:20:25;;;;;;;4.40;2.37;;;;;;;11.58;38.09;97051.69;5066664;28;20301;-76
2021/03/30 07:22:52;;;;;;;3.43;1.70;;;;;;;11.65;37.54;97050.25;5067031;28;20201;-76
2021/03/30 07:25:21;;;;;;;3.67;2.03;;;;;;;11.61;37.61;97047.06;5059308;28;20521;-76
2021/03/30 07:27:59;;;;;;;5.93;2.37;;;;;;;11.73;37.29;97050.50;5051124;28;20589;-76
2021/03/30 07:30:25;;;;;;;8.00;2.27;;;;;;;11.85;37.17;97044.41;5035332;28;20204;-76
2021/03/30 07:33:02;;;;;;;5.63;2.00;;;;;;;11.97;37.44;97050.41;5049879;28;20664;-75
2021/03/30 07:35:29;;;;;;;6.97;2.27;;;;;;;12.00;37.79;97051.94;5049805;28;20188;-74
2021/03/30 07:38:13;;;;;;;6.10;2.20;;;;;;;12.07;36.88;97047.94;5067816;28;20185;-73
2021/03/30 07:40:40;;;;;;;4.40;2.10;;;;;;;12.12;37.06;97048.41;5069649;28;20205;-76
2021/03/30 07:43:07;;;;;;;5.10;2.23;;;;;;;12.23;37.54;97053.59;5035369;28;20227;-77
2021/03/30 07:45:34;;;;;;;4.47;2.17;;;;;;;12.30;36.70;97053.94;5048913;28;20178;-73
2021/03/30 07:48:00;;;;;;;5.47;2.50;;;;;;;12.37;36.99;97053.34;5066039;28;20645;-74
2021/03/30 07:50:46;;;;;;;6.80;2.53;;;;;;;12.58;36.64;97056.00;5067011;28;20190;-74
2021/03/30 07:53:43;;;;;;;3.97;2.00;;;;;;;12.69;36.49;97049.91;5062731;28;20783;-76
2021/03/30 07:56:33;;;;;;;4.80;2.00;;;;;;;12.86;36.18;97057.19;5069415;28;20182;-74
2021/03/30 07:58:58;;;;;;;5.07;2.20;;;;;;;13.03;36.14;97053.22;5069510;28;20186;-74
2021/03/30 08:01:25;;;;;;;3.83;2.00;;;;;;;13.13;36.70;97054.09;5059161;28;20699;-74
2021/03/30 08:03:54;;;;;;;4.80;2.07;;;;;;;13.19;36.33;97060.59;5060479;28;20236;-74
2021/03/30 08:06:27;;;;;;;5.13;1.90;;;;;;;13.32;35.53;97056.88;5062875;28;20189;-75
2021/03/30 08:08:55;;;;;;;7.73;1.97;;;;;;;13.30;34.86;97055.34;5070591;28;20185;-75
2021/03/30 08:11:39;;;;;;;2.57;1.63;;;;;;;13.48;34.17;97063.41;5067973;28;20209;-76
2021/03/30 08:14:17;;;;;;;4.17;1.70;;;;;;;13.62;34.07;97060.50;5067962;28;20670;-76
2021/03/30 08:16:48;;;;;;;6.23;2.10;;;;;;;13.70;33.90;97057.25;5068565;28;20184;-77
2021/03/30 08:19:15;;;;;;;5.13;1.80;;;;;;;13.84;33.21;97060.31;5062804;28;20248;-75
2021/03/30 08:21:57;;;;;;;3.83;1.80;;;;;;;14.03;33.44;97066.56;5069484;28;20193;-76
2021/03/30 08:24:23;;;;;;;4.90;1.63;;;;;;;14.06;34.00;97066.31;5069312;28;20227;-75
2021/03/30 08:26:49;;;;;;;2.77;1.70;;;;;;;14.03;34.77;97069.19;5071372;28;20196;-75
2021/03/30 08:29:18;;;;;;;5.20;2.10;;;;;;;14.23;33.92;97075.31;5044922;28;20181;-75
2021/03/30 08:31:49;;;;;;;2.83;2.40;;;;;;;14.26;34.42;97062.78;5059130;28;20201;-76
2021/03/30 08:34:22;;;;;;;6.17;2.50;;;;;;;14.24;35.25;97066.50;5062784;28;20210;-77
2021/03/30 08:36:54;;;;;;;4.50;1.90;;;;;;;14.36;34.75;97070.66;5055725;28;20256;-77
2021/03/30 08:39:19;;;;;;;3.73;2.17;;;;;;;14.30;34.78;97061.56;5060897;28;20184;-76
2021/03/30 08:41:48;;;;;;;3.53;2.33;;;;;;;14.39;34.19;97060.75;5064230;28;20542;-76
2021/03/30 08:44:36;;;;;;;3.93;2.20;;;;;;;14.44;35.02;97073.44;5068097;28;20216;-76
2021/03/30 08:47:03;;;;;;;4.37;2.17;;;;;;;14.48;34.81;97071.41;5069619;28;20185;-75
2021/03/30 08:49:31;;;;;;;5.53;2.40;;;;;;;14.50;35.25;97072.13;5036593;28;20714;-75
2021/03/30 08:52:05;;;;;;;4.47;2.47;;;;;;;14.57;34.37;97074.03;5062674;28;20323;-75
2021/03/30 08:54:32;;;;;;;5.27;2.73;;;;;;;14.70;33.84;97073.78;5055294;28;20217;-75
2021/03/30 08:57:07;;;;;;;7.17;2.90;;;;;;;14.83;32.30;97074.34;5056626;28;20262;-76
2021/03/30 08:59:33;;;;;;;7.47;3.60;;;;;;;14.90;32.51;97074.63;5059969;28;20209;-76
2021/03/30 09:02:09;;;;;;;7.37;3.63;;;;;;;14.97;32.53;97079.16;5058266;28;20201;-75
2021/03/30 09:04:35;;;;;;;6.83;3.03;;;;;;;15.01;33.36;97079.72;5066894;28;20193;-76
2021/03/30 09:07:01;;;;;;;4.77;3.10;;;;;;;14.98;31.80;97086.06;5067962;28;20195;-76
2021/03/30 09:09:33;;;;;;;6.10;3.33;;;;;;;15.09;31.55;97082.47;5086514;28;20189;-76
2021/03/30 09:11:59;;;;;;;4.13;3.07;;;;;;;15.07;30.99;97081.78;5070256;28;20197;-76
2021/03/30 09:14:24;;;;;;;6.23;3.17;;;;;;;15.04;31.06;97081.25;5073730;28;20193;-76
2021/03/30 09:16:51;;;;;;;4.63;2.90;;;;;;;15.14;31.19;97079.44;5069119;28;20188;-75
2021/03/30 09:19:24;;;;;;;7.20;2.60;;;;;;;15.26;31.73;97075.72;5070653;28;20181;-76
2021/03/30 09:22:07;;;;;;;6.83;3.00;;;;;;;15.32;31.29;97072.53;5067889;28;20605;-76
2021/03/30 09:24:57;;;;;;;5.20;2.87;;;;;;;15.53;30.99;97067.13;5063812;28;20269;-76
2021/03/30 09:27:27;;;;;;;5.50;2.70;;;;;;;15.74;30.37;97078.28;5064452;28;20185;-76
2021/03/30 09:29:57;;;;;;;4.10;2.23;;;;;;;15.81;30.20;97065.41;5072043;28;20264;-76
2021/03/30 09:32:24;;;;;;;3.03;2.10;;;;;;;15.81;29.58;97063.66;5068958;28;20206;-75
2021/03/30 09:34:50;;;;;;;5.37;2.70;;;;;;;15.89;30.60;97067.31;5070424;28;20290;-74
2021/03/30 09:37:15;;;;;;;3.47;2.13;;;;;;;16.12;30.72;97069.44;5069071;28;20652;-75
2021/03/30 09:39:41;;;;;;;4.77;2.13;;;;;;;16.23;30.18;97068.41;5050628;28;20205;-75
2021/03/30 09:42:07;;;;;;;5.90;2.47;;;;;;;16.37;29.58;97069.75;5068071;28;20186;-75
2021/03/30 09:44:41;;;;;;;3.23;2.17;;;;;;;16.42;28.69;97064.88;5054550;28;20573;-75
2021/03/30 09:47:07;;;;;;;5.63;2.63;;;;;;;16.53;29.33;97067.31;5063382;28;20218;-75
2021/03/30 09:49:32;;;;;;;4.57;2.45;;;;;;;16.65;30.66;97065.28;5051601;28;20209;-76
2021/03/30 09:52:00;;;;;;;3.53;2.60;;;;;;;16.76;29.71;97066.91;5058765;28;20186;-77
2021/03/30 09:54:38;;;;;;;3.63;2.27;;;;;;;16.81;29.00;97054.16;5061225;28;20189;-75
2021/03/30 09:57:16;;;;;;;6.05;2.00;;;;;;;16.88;29.14;97057.84;5070067;28;20272;-76
2021/03/30 09:59:46;;;;;;;3.15;2.08;;;;;;;16.94;28.77;97062.47;5062162;28;20197;-77
2021/03/30 10:02:12;;;;;;;4.63;2.55;;;;;;;17.03;28.28;97060.75;5065179;28;20205;-76
2021/03/30 10:04:37;;;;;;;3.88;2.60;;;;;;;17.02;27.81;97051.22;5070783;28;20200;-76
2021/03/30 10:07:16;;;;;;;2.88;2.33;;;;;;;16.92;27.23;97059.19;5070522;28;20211;-75
2021/03/30 10:09:55;;;;;;;4.10;2.10;;;;;;;16.85;26.98;97052.88;5060164;28;20181;-74
2021/03/30 10:12:22;;;;;;;5.43;2.30;;;;;;;17.03;28.41;97052.88;5065711;28;20213;-75
2021/03/30 10:14:48;;;;;;;5.15;2.60;;;;;;;17.23;29.02;97055.19;5049497;28;20185;-75
2021/03/30 10:17:13;;;;;;;3.25;2.22;;;;;;;17.26;28.46;97052.25;5056814;28;20177;-75
2021/03/30 10:19:46;;;;;;;4.45;2.47;;;;;;;17.26;29.39;97052.25;5061509;28;20232;-75
2021/03/30 10:22:31;;;;;;;4.05;2.67;;;;;;;17.48;28.61;97047.47;5034922;28;20198;-77
2021/03/30 10:25:11;;;;;;;5.45;2.83;;;;;;;17.50;28.61;97048.16;5054325;28;20181;-75
2021/03/30 10:27:37;;;;;;;4.68;2.60;;;;;;;17.65;27.89;97049.22;5063499;28;20652;-74
2021/03/30 10:30:05;;;;;;;4.45;2.70;;;;;;;17.59;28.31;97044.63;5063908;28;20173;-74
2021/03/30 10:32:43;;;;;;;3.95;2.50;;;;;;;17.42;28.44;97040.25;5070597;28;20197;-75
2021/03/30 10:35:09;;;;;;;3.05;2.50;;;;;;;17.47;28.41;97045.84;5064115;28;20210;-74
2021/03/30 10:37:35;;;;;;;5.65;2.50;;;;;;;17.65;27.20;97041.34;5067622;28;20187;-74
2021/03/30 10:40:04;;;;;;;4.90;2.72;;;;;;;17.72;27.21;97039.78;5053257;28;20205;-74
2021/03/30 10:42:31;;;;;;;4.35;2.58;;;;;;;17.80;29.13;97029.31;5066323;28;20235;-75
2021/03/30 10:44:57;;;;;;;5.53;3.08;;;;;;;17.82;29.14;97029.97;5052139;28;20213;-75
2021/03/30 10:47:24;;;;;;;3.70;3.05;;;;;;;17.90;28.10;97033.63;5049908;28;20220;-75
2021/03/30 10:49:54;;;;;;;6.85;2.95;;;;;;;17.93;28.57;97031.50;5061897;28;20602;-74
2021/03/30 10:52:23;;;;;;;4.35;3.17;;;;;;;18.01;28.44;97023.66;5058509;28;20259;-74
2021/03/30 10:54:51;;;;;;;4.38;2.92;;;;;;;18.10;27.51;97027.97;5062770;28;20185;-74
2021/03/30 10:57:22;;;;;;;5.68;3.20;;;;;;;18.26;26.87;97032.47;5052303;28;20177;-74
2021/03/30 10:59:47;;;;;;;6.57;4.13;;;;;;;18.05;25.95;97027.63;5067726;28;20224;-74
2021/03/30 11:02:13;;;;;;;5.93;3.25;;;;;;;18.07;27.65;97020.41;5049998;28;20198;-74
2021/03/30 11:04:39;;;;;;;6.93;2.97;;;;;;;18.11;27.11;97018.31;5063821;28;20326;-74
2021/03/30 11:07:05;;;;;;;9.05;3.75;;;;;;;18.19;26.72;97017.47;5076474;28;20188;-74
2021/03/30 11:09:31;;;;;;;6.13;3.10;;;;;;;18.28;25.44;97013.91;5069881;28;20552;-73
2021/03/30 11:11:57;;;;;;;5.70;2.88;;;;;;;18.27;26.64;97017.50;5070591;28;20189;-73
2021/03/30 11:14:22;;;;;;;5.35;2.85;;;;;;;18.43;25.60;97014.13;5065837;28;20185;-75
2021/03/30 11:16:49;;;;;;;3.50;2.65;;;;;;;18.53;25.63;97014.78;5067783;28;20173;-73
2021/03/30 11:19:14;;;;;;;3.75;3.00;;;;;;;18.51;25.33;97009.69;5052386;28;20174;-72
2021/03/30 11:21:40;;;;;;;3.00;2.50;;;;;;;18.63;24.31;97007.56;5055289;28;20208;-73
2021/03/30 11:24:06;;;;;;;4.80;2.35;;;;;;;18.71;22.93;97007.63;5057950;28;20297;-72
2021/03/30 11:26:32;;;;;;;4.13;2.50;;;;;;;18.66;22.16;97002.03;5056882;28;20276;-73
2021/03/30 11:28:59;;;;;;;4.70;2.20;;;;;;;18.62;19.56;96998.84;5058947;28;20261;-73
2021/03/30 11:31:45;;;;;;;2.42;2.20;;;;;;;18.47;21.88;96997.03;5052903;28;20597;-73
2021/03/30 11:34:20;;;;;;;3.28;2.17;;;;;;;18.63;20.42;97002.31;5052510;28;20259;-73
2021/03/30 11:36:47;;;;;;;3.95;2.20;;;;;;;18.75;20.72;96990.53;5052941;28;20610;-74
2021/03/30 11:39:12;;;;;;;2.90;1.88;;;;;;;18.68;22.31;96992.16;5060962;28;20230;-73
2021/03/30 11:41:38;;;;;;;4.55;2.10;;;;;;;18.76;22.47;96989.53;5062818;28;20233;-74
2021/03/30 11:44:03;;;;;;;7.18;2.63;;;;;;;18.75;21.73;96990.53;5080944;28;20200;-73
2021/03/30 11:46:29;;;;;;;4.32;2.35;;;;;;;18.84;21.58;96983.47;5067590;28;20571;-74